Time;durP1;ratioP1;P1;durP2;ratioP2;P2;SDS_P1;SDS_P2;PMS_P1;PMS_P2;Temp;Humidity;BMP_temperature;BMP_pressure;BME280_temperature;BME280_humidity;BME280_pressure;Samples;Min_cycle;Max_cycle;Signal;HPM_P1;HPM_P2
2024/01/06 00:01:38;;;;;;;25.83;18.77;;;4.70;99.90;;;3.71;100.00;99533.53;5053203;28;20240;-70
2024/01/06 00:04:06;;;;;;;25.70;18.53;;;4.70;99.90;;;3.65;100.00;99526.19;5054334;28;20216;-70
2024/01/06 00:06:35;;;;;;;24.70;19.57;;;4.60;99.90;;;3.63;100.00;99534.25;5058319;28;20213;-70
2024/01/06 00:09:04;;;;;;;25.37;18.07;;;4.60;99.90;;;3.62;100.00;99527.31;5057453;28;20229;-70
2024/01/06 00:11:32;;;;;;;31.40;19.50;;;4.70;99.90;;;3.61;100.00;99530.09;5057333;28;20214;-70
2024/01/06 00:14:00;;;;;;;28.47;20.00;;;4.60;99.90;;;3.62;100.00;99529.97;5057338;28;20208;-70
2024/01/06 00:16:29;;;;;;;28.37;19.80;;;4.60;99.90;;;3.60;100.00;99539.84;5056904;28;20202;-70
2024/01/06 00:18:57;;;;;;;26.30;18.90;;;4.60;99.90;;;3.59;100.00;99535.56;5056929;28;20685;-70
2024/01/06 00:21:25;;;;;;;27.63;19.40;;;4.60;99.90;;;3.51;100.00;99536.28;5056826;28;20861;-70
2024/01/06 00:23:55;;;;;;;27.17;18.43;;;4.60;99.90;;;3.57;100.00;99545.44;5057134;28;20226;-70
2024/01/06 00:26:25;;;;;;;26.37;18.50;;;4.60;99.90;;;3.52;100.00;99543.25;5057085;28;20296;-69
2024/01/06 00:28:53;;;;;;;26.00;19.07;;;4.60;99.90;;;3.57;100.00;99546.28;5057069;28;20256;-69
2024/01/06 00:31:21;;;;;;;25.33;18.97;;;4.60;99.90;;;3.52;100.00;99537.94;5056977;28;20253;-70
2024/01/06 00:33:50;;;;;;;30.70;18.67;;;4.60;99.90;;;3.55;100.00;99540.31;5056797;28;20209;-70
2024/01/06 00:36:18;;;;;;;26.40;19.20;;;4.60;99.90;;;3.57;100.00;99551.56;5056698;28;20190;-70
2024/01/06 00:38:46;;;;;;;26.57;18.63;;;4.60;99.90;;;3.58;100.00;99547.09;5056875;28;20206;-70
2024/01/06 00:41:15;;;;;;;25.50;18.07;;;4.60;99.90;;;3.55;100.00;99542.94;5056883;28;20210;-70
2024/01/06 00:43:45;;;;;;;25.83;17.73;;;4.60;99.90;;;3.58;100.00;99552.41;5056869;28;20234;-73
2024/01/06 00:46:13;;;;;;;25.90;18.27;;;4.60;99.90;;;3.55;100.00;99548.25;5056802;28;20293;-74
2024/01/06 00:48:41;;;;;;;25.07;17.73;;;4.60;99.90;;;3.53;100.00;99552.00;5056699;28;20289;-74
2024/01/06 00:51:09;;;;;;;25.30;18.10;;;4.60;99.90;;;3.53;100.00;99546.69;5056710;28;20235;-75
2024/01/06 00:53:38;;;;;;;26.77;17.00;;;4.50;99.90;;;3.57;100.00;99554.22;5056531;28;20218;-74
2024/01/06 00:56:06;;;;;;;26.90;18.27;;;4.60;99.90;;;3.58;100.00;99563.81;5056233;28;20687;-74
2024/01/06 00:58:34;;;;;;;23.30;17.40;;;4.60;99.90;;;3.62;100.00;99563.53;5056704;28;20297;-74
2024/01/06 01:01:04;;;;;;;26.00;18.27;;;4.70;99.90;;;3.57;100.00;99562.16;5056792;28;20301;-74
2024/01/06 01:03:32;;;;;;;26.73;18.37;;;4.50;99.90;;;3.60;100.00;99566.31;5056045;28;20722;-73
2024/01/06 01:06:01;;;;;;;23.33;16.80;;;4.60;99.90;;;3.61;100.00;99572.44;5056402;28;20202;-73
2024/01/06 01:08:30;;;;;;;27.97;17.80;;;4.60;99.90;;;3.63;100.00;99581.09;5056307;28;20300;-73
2024/01/06 01:10:59;;;;;;;22.60;16.47;;;4.70;99.90;;;3.65;100.00;99579.13;5056190;28;20210;-74
2024/01/06 01:13:27;;;;;;;22.73;16.50;;;4.70;99.90;;;3.65;100.00;99585.25;5056173;28;20317;-73
2024/01/06 01:15:55;;;;;;;23.23;16.70;;;4.70;99.90;;;3.65;100.00;99584.41;5055063;28;20206;-73
2024/01/06 01:18:25;;;;;;;23.27;16.97;;;4.80;99.90;;;3.65;100.00;99589.72;5056131;28;20214;-74
2024/01/06 01:20:53;;;;;;;22.00;15.80;;;4.70;99.90;;;3.65;100.00;99592.34;5056198;28;20272;-75
2024/01/06 01:23:21;;;;;;;22.47;15.40;;;4.70;99.90;;;3.65;100.00;99590.53;5056179;28;20260;-74
2024/01/06 01:25:49;;;;;;;23.80;16.30;;;4.70;99.90;;;3.65;100.00;99589.72;5056015;28;20249;-74
2024/01/06 01:28:17;;;;;;;23.07;16.53;;;4.70;99.90;;;3.67;100.00;99593.03;5055717;28;20245;-74
2024/01/06 01:30:45;;;;;;;22.47;16.70;;;4.70;99.90;;;3.66;100.00;99604.63;5055911;28;20298;-74
2024/01/06 01:33:14;;;;;;;23.70;17.50;;;4.70;99.90;;;3.64;100.00;99609.19;5055804;28;20218;-74
2024/01/06 01:35:43;;;;;;;23.80;16.97;;;4.60;99.90;;;3.64;100.00;99604.75;5055420;28;20221;-73
2024/01/06 01:38:12;;;;;;;22.87;16.57;;;4.70;99.90;;;3.65;100.00;99610.88;5055808;28;20296;-74
2024/01/06 01:40:40;;;;;;;21.23;15.97;;;4.60;99.90;;;3.64;100.00;99604.75;5055770;28;20255;-71
2024/01/06 01:43:18;;;;;;;23.63;16.67;;;4.70;99.90;;;3.57;100.00;99609.78;5055581;28;20275;-71
2024/01/06 01:45:51;;;;;;;24.07;16.03;;;4.60;99.90;;;3.61;100.00;99612.97;5055371;28;20241;-71
2024/01/06 01:48:20;;;;;;;25.87;17.93;;;4.60;99.90;;;3.53;100.00;99611.03;5055909;28;20195;-71
2024/01/06 01:50:52;;;;;;;24.87;17.90;;;4.50;99.90;;;3.57;100.00;99609.78;5055504;28;20240;-71
2024/01/06 01:53:23;;;;;;;26.63;17.30;;;4.60;99.90;;;3.53;100.00;99616.34;5055469;28;20222;-71
2024/01/06 01:55:52;;;;;;;25.93;17.43;;;4.50;99.90;;;3.53;100.00;99613.69;5055188;28;20644;-71
2024/01/06 01:58:21;;;;;;;27.27;18.33;;;4.60;99.90;;;3.50;100.00;99608.69;5055087;28;20735;-71
2024/01/06 02:00:49;;;;;;;23.77;17.37;;;4.50;99.90;;;3.49;100.00;99616.78;5055008;28;20210;-71
2024/01/06 02:03:17;;;;;;;25.03;17.67;;;4.50;99.90;;;3.51;100.00;99618.31;5054841;28;20275;-71
2024/01/06 02:05:45;;;;;;;25.70;18.20;;;4.50;99.90;;;3.43;100.00;99618.16;5054918;28;20630;-71
2024/01/06 02:08:15;;;;;;;25.97;17.70;;;4.40;99.90;;;3.38;100.00;99609.84;5054925;28;20679;-71
2024/01/06 02:10:43;;;;;;;27.43;19.00;;;4.40;99.90;;;3.35;100.00;99610.13;5054879;28;20656;-71
2024/01/06 02:13:12;;;;;;;28.17;18.63;;;4.40;99.90;;;3.38;100.00;99622.22;5055040;28;20309;-71
2024/01/06 02:15:41;;;;;;;24.03;17.60;;;4.40;99.90;;;3.39;100.00;99619.44;5054725;28;20301;-71
2024/01/06 02:18:11;;;;;;;27.20;18.07;;;4.50;99.90;;;3.38;100.00;99616.94;5055009;28;20206;-71
2024/01/06 02:20:44;;;;;;;29.20;19.53;;;4.40;99.90;;;3.43;100.00;99625.25;5054655;28;20676;-71
2024/01/06 02:23:13;;;;;;;28.53;19.53;;;4.40;99.90;;;3.33;100.00;99627.94;5054846;28;20313;-71
2024/01/06 02:25:41;;;;;;;27.17;18.33;;;4.30;99.90;;;3.30;100.00;99633.50;5054848;28;20215;-71
2024/01/06 02:28:09;;;;;;;28.83;18.83;;;4.30;99.90;;;3.32;100.00;99631.53;5054587;28;20233;-71
2024/01/06 02:30:37;;;;;;;26.80;18.13;;;4.40;99.90;;;3.30;100.00;99630.88;5054797;28;20294;-71
2024/01/06 02:33:06;;;;;;;29.63;18.67;;;4.30;99.90;;;3.34;100.00;99639.34;5054657;28;20318;-71
2024/01/06 02:35:34;;;;;;;25.17;17.17;;;4.40;99.90;;;3.36;100.00;99643.53;5054442;28;20216;-71
2024/01/06 02:38:02;;;;;;;29.43;19.10;;;4.40;99.90;;;3.31;100.00;99644.94;5054840;28;20210;-71
2024/01/06 02:40:32;;;;;;;29.73;19.00;;;4.30;99.90;;;3.35;100.00;99651.63;5054251;28;20576;-71
2024/01/06 02:43:00;;;;;;;27.67;18.37;;;4.40;99.90;;;3.36;100.00;99654.09;5054176;28;20252;-71
2024/01/06 02:45:28;;;;;;;27.40;18.00;;;4.40;99.90;;;3.35;100.00;99651.63;5054397;28;20264;-71
2024/01/06 02:47:56;;;;;;;26.23;17.93;;;4.40;99.90;;;3.37;100.00;99650.50;5054423;28;20217;-71
2024/01/06 02:50:25;;;;;;;26.43;18.20;;;4.40;99.90;;;3.37;100.00;99647.84;5054409;28;20212;-71
2024/01/06 02:52:53;;;;;;;28.07;18.67;;;4.40;99.90;;;3.38;100.00;99654.81;5054352;28;20222;-71
2024/01/06 02:55:21;;;;;;;28.00;18.37;;;4.40;99.90;;;3.39;100.00;99658.31;5054554;28;20240;-71
2024/01/06 02:57:50;;;;;;;26.60;18.20;;;4.40;99.90;;;3.38;100.00;99657.47;5053961;28;20589;-71
2024/01/06 03:00:19;;;;;;;27.30;18.50;;;4.40;99.90;;;3.41;100.00;99656.34;5054243;28;20579;-71
2024/01/06 03:02:47;;;;;;;27.63;18.50;;;4.40;99.90;;;3.40;100.00;99658.16;5054081;28;20226;-71
2024/01/06 03:05:16;;;;;;;28.70;18.53;;;4.40;99.90;;;3.40;100.00;99663.44;5054034;28;20226;-71
2024/01/06 03:07:45;;;;;;;30.47;19.43;;;4.50;99.90;;;3.41;100.00;99666.91;5053790;28;20676;-71
2024/01/06 03:10:13;;;;;;;30.03;18.83;;;4.40;99.90;;;3.41;100.00;99667.75;5054045;28;20288;-71
2024/01/06 03:12:41;;;;;;;27.50;18.87;;;4.40;99.90;;;3.41;100.00;99672.22;5054274;28;20264;-71
2024/01/06 03:15:11;;;;;;;26.73;18.90;;;4.50;99.90;;;3.36;100.00;99672.63;5053936;28;20210;-71
2024/01/06 03:17:39;;;;;;;27.77;18.67;;;4.40;99.90;;;3.38;100.00;99669.84;5053928;28;20284;-71
2024/01/06 03:20:09;;;;;;;27.27;18.83;;;4.40;99.90;;;3.37;100.00;99674.31;5053633;28;20264;-71
2024/01/06 03:22:38;;;;;;;27.17;17.83;;;4.40;99.90;;;3.39;100.00;99682.91;5053759;28;20222;-71
2024/01/06 03:25:09;;;;;;;29.23;18.10;;;4.40;99.90;;;3.39;100.00;99685.56;5053758;28;20225;-71
2024/01/06 03:27:37;;;;;;;28.00;18.63;;;4.40;99.90;;;3.41;100.00;99683.63;5053773;28;20631;-71
2024/01/06 03:30:07;;;;;;;26.33;17.33;;;4.50;99.90;;;3.38;100.00;99678.63;5053415;28;20684;-70
2024/01/06 03:32:37;;;;;;;27.60;18.17;;;4.40;99.90;;;3.40;100.00;99676.66;5053670;28;20312;-70
2024/01/06 03:35:07;;;;;;;27.57;18.23;;;4.50;99.90;;;3.37;100.00;99686.69;5053507;28;20210;-70
2024/01/06 03:37:35;;;;;;;29.13;19.67;;;4.30;99.90;;;3.34;100.00;99687.81;5053626;28;20255;-70
2024/01/06 03:40:04;;;;;;;28.47;18.33;;;4.30;99.90;;;3.33;100.00;99686.13;5052691;28;20212;-71
2024/01/06 03:42:32;;;;;;;30.07;19.17;;;4.30;99.90;;;3.27;100.00;99686.69;5053156;28;20782;-71
2024/01/06 03:45:00;;;;;;;30.47;18.97;;;4.30;99.90;;;3.30;100.00;99689.06;5053428;28;20255;-71
2024/01/06 03:47:28;;;;;;;28.90;18.90;;;4.30;99.90;;;3.33;100.00;99696.72;5053497;28;20293;-71
2024/01/06 03:49:58;;;;;;;30.60;18.47;;;4.40;99.90;;;3.34;100.00;99697.56;5053134;28;20229;-71
2024/01/06 03:52:26;;;;;;;29.60;18.90;;;4.40;99.90;;;3.35;100.00;99710.66;5053062;28;20750;-71
2024/01/06 03:54:54;;;;;;;27.57;18.67;;;4.40;99.90;;;3.35;100.00;99702.72;5053394;28;20208;-71
2024/01/06 03:57:23;;;;;;;28.70;18.20;;;4.40;99.90;;;3.35;100.00;99700.06;5053338;28;20206;-71
2024/01/06 03:59:51;;;;;;;28.73;18.47;;;4.40;99.90;;;3.39;100.00;99705.91;5053073;28;20668;-71
2024/01/06 04:02:19;;;;;;;27.43;17.60;;;4.40;99.90;;;3.36;100.00;99704.38;5053287;28;20230;-71
2024/01/06 04:04:47;;;;;;;25.30;17.77;;;4.50;99.90;;;3.41;100.00;99703.97;5052929;28;20603;-71
2024/01/06 04:07:17;;;;;;;27.97;18.10;;;4.40;99.90;;;3.40;100.00;99708.41;5053303;28;20367;-71
2024/01/06 04:09:45;;;;;;;27.00;17.37;;;4.50;99.90;;;3.40;100.00;99708.41;5053333;28;20202;-71
2024/01/06 04:12:13;;;;;;;26.20;17.40;;;4.40;99.90;;;3.32;100.00;99713.56;5053260;28;20230;-71
2024/01/06 04:14:40;;;;;;;26.40;17.73;;;4.40;99.90;;;3.29;100.00;99716.47;5053244;28;20202;-71
2024/01/06 04:17:08;;;;;;;27.13;18.40;;;4.30;99.90;;;3.32;100.00;99721.50;5053206;28;20208;-70
2024/01/06 04:19:37;;;;;;;23.20;16.27;;;4.40;99.90;;;3.34;100.00;99727.50;5052901;28;20574;-70
2024/01/06 04:22:05;;;;;;;28.97;17.93;;;4.40;99.90;;;3.33;100.00;99728.47;5053240;28;20221;-70
2024/01/06 04:24:37;;;;;;;25.27;17.73;;;4.30;99.90;;;3.35;100.00;99723.03;5053104;28;20257;-70
2024/01/06 04:27:07;;;;;;;29.87;18.27;;;4.40;99.90;;;3.31;100.00;99725.13;5053143;28;20226;-70
2024/01/06 04:29:35;;;;;;;28.33;17.80;;;4.40;99.90;;;3.32;100.00;99721.50;5053132;28;20687;-70
2024/01/06 04:32:04;;;;;;;29.03;18.00;;;4.30;99.90;;;3.30;100.00;99734.03;5052977;28;20886;-70
2024/01/06 04:34:32;;;;;;;31.97;18.50;;;4.30;99.90;;;3.30;100.00;99738.47;5052754;28;20219;-70
2024/01/06 04:37:00;;;;;;;27.73;16.73;;;4.30;99.90;;;3.31;100.00;99745.44;5053022;28;20213;-70
2024/01/06 04:39:28;;;;;;;30.67;17.47;;;4.30;99.90;;;3.32;100.00;99741.84;5053024;28;20206;-70
2024/01/06 04:41:58;;;;;;;28.60;17.93;;;4.30;99.90;;;3.32;100.00;99752.44;5052915;28;20226;-70
2024/01/06 04:44:26;;;;;;;31.37;18.53;;;4.40;99.90;;;3.31;100.00;99750.75;5053097;28;20300;-69
2024/01/06 04:46:54;;;;;;;25.87;16.97;;;4.30;99.90;;;3.31;100.00;99759.53;5052614;28;20248;-70
2024/01/06 04:49:22;;;;;;;28.90;17.97;;;4.30;99.90;;;3.30;100.00;99755.19;5053214;28;20206;-69
2024/01/06 04:51:50;;;;;;;29.33;18.30;;;4.30;99.90;;;3.29;100.00;99758.81;5056617;28;20265;-69
2024/01/06 04:54:19;;;;;;;27.93;18.03;;;4.40;99.90;;;3.31;100.00;99764.81;5056537;28;20615;-69
2024/01/06 04:56:47;;;;;;;27.87;17.87;;;4.30;99.90;;;3.30;100.00;99760.47;5056342;28;20560;-69
2024/01/06 04:59:17;;;;;;;28.20;17.67;;;4.30;99.90;;;3.29;100.00;99765.94;5056576;28;20220;-69
2024/01/06 05:01:45;;;;;;;28.23;17.10;;;4.30;99.90;;;3.32;100.00;99763.81;5056396;28;20221;-70
2024/01/06 05:04:13;;;;;;;27.10;17.10;;;4.40;99.90;;;3.33;100.00;99762.84;5056471;28;20220;-70
2024/01/06 05:06:42;;;;;;;30.83;18.57;;;4.30;99.90;;;3.30;100.00;99771.06;5056582;28;20226;-69
2024/01/06 05:09:10;;;;;;;27.37;17.53;;;4.40;99.90;;;3.27;100.00;99773.16;5056447;28;20206;-69
2024/01/06 05:11:38;;;;;;;27.87;17.53;;;4.30;99.90;;;3.30;100.00;99773.72;5056079;28;20224;-69
2024/01/06 05:14:06;;;;;;;27.87;17.80;;;4.30;99.90;;;3.31;100.00;99774.56;5056740;28;20206;-69
2024/01/06 05:16:36;;;;;;;28.93;17.43;;;4.30;99.90;;;3.30;100.00;99776.34;5056214;28;20668;-70
2024/01/06 05:19:04;;;;;;;29.53;17.63;;;4.30;99.90;;;3.29;100.00;99777.31;5056153;28;20301;-70
2024/01/06 05:21:33;;;;;;;28.13;17.87;;;4.30;99.90;;;3.26;100.00;99782.88;5055670;28;20214;-69
2024/01/06 05:24:03;;;;;;;26.07;17.57;;;4.30;99.90;;;3.28;100.00;99788.91;5055666;28;20590;-69
2024/01/06 05:26:31;;;;;;;26.07;16.57;;;4.30;99.90;;;3.31;100.00;99793.91;5055599;28;20685;-69
2024/01/06 05:28:59;;;;;;;26.97;17.10;;;4.30;99.90;;;3.30;100.00;99802.81;5055691;28;20696;-69
2024/01/06 05:31:27;;;;;;;30.37;18.13;;;4.40;99.90;;;3.26;100.00;99801.41;5055838;28;20206;-70
2024/01/06 05:33:56;;;;;;;28.93;17.60;;;4.30;99.90;;;3.26;100.00;99804.06;5055696;28;20213;-70
2024/01/06 05:36:25;;;;;;;28.90;17.93;;;4.30;99.90;;;3.27;100.00;99802.25;5055826;28;20256;-69
2024/01/06 05:38:53;;;;;;;33.00;18.47;;;4.30;99.90;;;3.30;100.00;99813.38;5056013;28;20210;-70
2024/01/06 05:41:22;;;;;;;27.20;17.77;;;4.40;99.90;;;3.30;100.00;99813.38;5055722;28;20305;-69
2024/01/06 05:43:50;;;;;;;29.53;18.10;;;4.30;99.90;;;3.32;100.00;99815.91;5055729;28;20238;-70
2024/01/06 05:46:22;;;;;;;31.60;19.60;;;4.30;99.90;;;3.27;100.00;99805.72;5055544;28;20226;-70
2024/01/06 05:48:51;;;;;;;31.70;18.07;;;4.30;99.90;;;3.29;100.00;99811.72;5055330;28;20194;-70
2024/01/06 05:51:21;;;;;;;29.67;18.70;;;4.30;99.90;;;3.28;100.00;99815.34;5055598;28;20209;-70
2024/01/06 05:53:49;;;;;;;31.93;18.00;;;4.30;99.90;;;3.27;100.00;99816.31;5055706;28;20222;-70
2024/01/06 05:56:24;;;;;;;30.87;19.30;;;4.30;99.90;;;3.28;100.00;99819.81;5055505;28;20198;-70
2024/01/06 05:58:53;;;;;;;28.40;18.27;;;4.30;99.90;;;3.26;100.00;99817.28;5055480;28;20268;-70
2024/01/06 06:01:22;;;;;;;33.27;20.37;;;4.30;99.90;;;3.25;100.00;99820.91;5054990;28;20309;-70
2024/01/06 06:03:51;;;;;;;30.83;18.37;;;4.30;99.90;;;3.23;100.00;99822.84;5055868;28;20217;-70
2024/01/06 06:06:21;;;;;;;32.60;19.90;;;4.20;99.90;;;3.21;100.00;99829.25;5055217;28;20226;-70
2024/01/06 06:08:49;;;;;;;30.00;17.93;;;4.30;99.90;;;3.17;100.00;99828.69;5055207;28;20202;-70
2024/01/06 06:11:18;;;;;;;35.60;20.70;;;4.20;99.90;;;3.19;100.00;99837.31;5055219;28;20213;-70
2024/01/06 06:13:46;;;;;;;33.90;19.50;;;4.20;99.90;;;3.14;100.00;99838.69;5055103;28;20268;-70
2024/01/06 06:16:14;;;;;;;35.27;20.87;;;4.20;99.90;;;3.15;100.00;99840.38;5055129;28;20204;-70
2024/01/06 06:18:42;;;;;;;34.67;20.40;;;4.20;99.90;;;3.16;100.00;99849.97;5055039;28;20230;-69
2024/01/06 06:21:11;;;;;;;37.47;20.43;;;4.20;99.90;;;3.05;100.00;99853.53;5055215;28;20210;-70
2024/01/06 06:23:40;;;;;;;33.97;20.63;;;4.10;99.90;;;3.10;100.00;99858.44;5054894;28;20226;-70
2024/01/06 06:26:09;;;;;;;37.13;21.77;;;4.10;99.90;;;3.09;100.00;99868.19;5054867;28;20229;-70
2024/01/06 06:28:37;;;;;;;35.13;21.07;;;4.20;99.90;;;3.05;100.00;99872.91;5054842;28;20238;-69
2024/01/06 06:31:06;;;;;;;40.50;22.90;;;4.10;99.90;;;3.06;100.00;99873.75;5054827;28;20296;-69
2024/01/06 06:33:34;;;;;;;39.93;22.77;;;4.10;99.90;;;3.03;100.00;99879.28;5054675;28;20232;-74
2024/01/06 06:36:02;;;;;;;45.97;23.07;;;4.10;99.90;;;3.03;100.00;99884.59;5054706;28;20206;-74
2024/01/06 06:38:30;;;;;;;39.13;21.00;;;4.00;99.90;;;3.04;100.00;99887.13;5054693;28;20237;-74
2024/01/06 06:41:00;;;;;;;36.33;19.90;;;4.10;99.90;;;3.05;100.00;99888.75;5054629;28;20206;-74
2024/01/06 06:43:28;;;;;;;40.17;22.27;;;4.10;99.90;;;2.98;100.00;99897.34;5054494;28;20230;-74
2024/01/06 06:45:56;;;;;;;42.13;22.97;;;4.00;99.90;;;3.02;100.00;99904.91;5054667;28;20325;-70
2024/01/06 06:48:25;;;;;;;38.67;20.37;;;4.10;99.90;;;3.05;100.00;99909.06;5054462;28;20312;-70
2024/01/06 06:50:53;;;;;;;36.43;20.97;;;4.10;99.90;;;3.06;100.00;99906.31;5054444;28;20214;-70
2024/01/06 06:53:21;;;;;;;42.03;23.10;;;4.10;99.90;;;3.05;100.00;99909.06;5054357;28;20261;-70
2024/01/06 06:55:49;;;;;;;39.67;22.57;;;4.10;99.90;;;3.02;100.00;99915.47;5054465;28;20206;-70
2024/01/06 06:58:19;;;;;;;39.30;21.97;;;4.10;99.90;;;3.02;100.00;99915.47;5054326;28;20285;-70
2024/01/06 07:00:47;;;;;;;40.67;22.60;;;4.10;99.90;;;3.00;100.00;99908.66;5054232;28;20212;-70
2024/01/06 07:03:15;;;;;;;39.93;22.53;;;4.10;99.90;;;3.05;100.00;99927.59;5053808;28;20582;-70
2024/01/06 07:05:44;;;;;;;42.53;24.17;;;4.10;99.90;;;3.08;100.00;99930.81;5054125;28;22188;-70
2024/01/06 07:08:14;;;;;;;40.73;22.70;;;4.10;99.90;;;3.06;100.00;99926.63;5054098;28;20210;-70
2024/01/06 07:10:42;;;;;;;38.50;22.20;;;4.10;99.90;;;3.00;100.00;99932.44;5054071;28;20194;-70
2024/01/06 07:13:10;;;;;;;40.43;22.67;;;4.10;99.90;;;2.99;100.00;99934.25;5053100;28;20761;-70
2024/01/06 07:15:41;;;;;;;42.33;23.07;;;4.10;99.90;;;3.00;100.00;99935.94;5053737;28;20356;-70
2024/01/06 07:18:09;;;;;;;42.93;24.10;;;4.10;99.90;;;3.04;100.00;99939.16;5054013;28;20198;-70
2024/01/06 07:20:38;;;;;;;44.87;23.40;;;4.10;99.90;;;3.05;100.00;99940.81;5053935;28;20217;-70
2024/01/06 07:23:06;;;;;;;40.43;22.63;;;4.10;99.90;;;3.03;100.00;99945.41;5053444;28;20667;-70
2024/01/06 07:25:34;;;;;;;39.23;22.83;;;4.10;99.90;;;3.01;100.00;99950.00;5053814;28;20206;-70
2024/01/06 07:28:03;;;;;;;40.30;22.53;;;4.10;99.90;;;3.00;100.00;99953.59;5054011;28;20300;-70
2024/01/06 07:30:31;;;;;;;40.63;23.63;;;4.10;99.90;;;3.00;100.00;99956.25;5053411;28;20210;-70
2024/01/06 07:33:01;;;;;;;42.10;23.13;;;4.20;99.90;;;3.01;100.00;99961.38;5053885;28;20260;-70
2024/01/06 07:35:29;;;;;;;40.27;22.43;;;4.10;99.90;;;2.99;100.00;99967.78;5053276;28;20218;-70
2024/01/06 07:37:57;;;;;;;42.30;22.47;;;4.10;99.90;;;2.97;100.00;99975.03;5053602;28;20212;-70
2024/01/06 07:40:25;;;;;;;38.93;21.67;;;4.00;99.90;;;3.00;100.00;99977.41;5053545;28;20206;-70
2024/01/06 07:42:53;;;;;;;40.60;22.93;;;4.10;99.90;;;2.95;100.00;99987.50;5053486;28;20225;-70
2024/01/06 07:45:22;;;;;;;44.30;23.33;;;4.00;99.90;;;2.94;100.00;99996.44;5053542;28;20212;-70
2024/01/06 07:47:50;;;;;;;43.57;23.67;;;4.00;99.90;;;2.89;100.00;99988.88;5053421;28;20230;-70
2024/01/06 07:50:20;;;;;;;43.47;21.90;;;4.00;99.90;;;2.92;100.00;99999.19;5053774;28;20206;-63
2024/01/06 07:52:48;;;;;;;41.80;22.33;;;4.00;99.90;;;2.85;100.00;100007.78;5053132;28;20654;-66
2024/01/06 07:55:16;;;;;;;40.93;22.33;;;4.00;99.90;;;2.83;100.00;100009.72;5053385;28;20216;-66
2024/01/06 07:57:44;;;;;;;44.27;22.37;;;3.90;99.90;;;2.78;100.00;100006.59;5053367;28;20202;-66
2024/01/06 08:00:14;;;;;;;39.07;21.80;;;3.90;99.90;;;2.80;100.00;100009.97;5053064;28;20691;-66
2024/01/06 08:02:43;;;;;;;41.47;21.87;;;3.80;99.90;;;2.78;100.00;100012.72;5053009;28;20779;-66
2024/01/06 08:05:11;;;;;;;38.87;21.70;;;3.90;99.90;;;2.78;100.00;100011.88;5053352;28;20245;-66
2024/01/06 08:07:41;;;;;;;37.60;21.03;;;3.80;99.90;;;2.78;100.00;100017.19;5053276;28;20316;-66
2024/01/06 08:10:10;;;;;;;39.47;21.90;;;3.80;99.90;;;2.79;100.00;100013.56;5053011;28;20206;-66
2024/01/06 08:12:38;;;;;;;39.17;21.03;;;3.90;99.90;;;2.77;100.00;100028.75;5053229;28;20233;-66
2024/01/06 08:15:09;;;;;;;37.43;21.00;;;3.80;99.90;;;2.76;100.00;100030.53;5053213;28;20210;-66
2024/01/06 08:17:38;;;;;;;38.73;20.03;;;3.70;99.90;;;2.80;100.00;100026.69;5052901;28;20598;-66
2024/01/06 08:20:08;;;;;;;36.83;20.17;;;3.90;99.90;;;2.75;100.00;100036.78;5053237;28;20232;-66
2024/01/06 08:22:36;;;;;;;31.90;18.90;;;3.80;99.90;;;2.75;100.00;100028.84;5052781;28;20738;-65
2024/01/06 08:25:07;;;;;;;36.00;19.97;;;3.80;99.90;;;2.70;100.00;100035.50;5054264;28;20248;-65
2024/01/06 08:27:35;;;;;;;34.73;19.40;;;3.70;99.90;;;2.73;100.00;100040.53;5057087;28;20210;-66
2024/01/06 08:30:04;;;;;;;34.87;19.07;;;3.80;99.90;;;2.71;100.00;100042.44;5057057;28;20300;-66
2024/01/06 08:32:33;;;;;;;30.83;18.17;;;3.70;99.90;;;2.75;100.00;100051.78;5057018;28;20257;-70
2024/01/06 08:35:02;;;;;;;35.03;18.57;;;3.80;99.90;;;2.72;100.00;100052.91;5056539;28;20210;-70
2024/01/06 08:37:30;;;;;;;33.03;18.30;;;3.90;99.90;;;2.70;100.00;100062.78;5056673;28;20725;-70
2024/01/06 08:39:58;;;;;;;32.77;19.93;;;3.80;99.90;;;2.75;100.00;100065.00;5056879;28;20293;-70
2024/01/06 08:42:28;;;;;;;31.90;19.17;;;3.90;99.90;;;2.73;100.00;100073.09;5057049;28;20253;-70
2024/01/06 08:44:56;;;;;;;31.70;19.10;;;3.80;99.90;;;2.67;100.00;100088.63;5056771;28;20208;-70
2024/01/06 08:47:24;;;;;;;30.77;18.43;;;3.80;99.90;;;2.71;100.00;100087.38;5056700;28;20317;-70
2024/01/06 08:49:53;;;;;;;29.20;17.83;;;3.70;99.90;;;2.72;100.00;100087.25;5056428;28;20668;-70
2024/01/06 08:52:21;;;;;;;30.07;18.47;;;3.80;99.90;;;2.74;100.00;100090.59;5056609;28;20590;-70
2024/01/06 08:54:49;;;;;;;28.17;17.70;;;3.80;99.90;;;2.74;100.00;100097.72;5056668;28;20237;-70
2024/01/06 08:57:18;;;;;;;29.57;17.60;;;3.90;99.90;;;2.74;100.00;100101.19;5056885;28;20213;-70
2024/01/06 08:59:48;;;;;;;31.40;17.43;;;3.80;99.90;;;2.75;100.00;100105.50;5056504;28;20206;-70
2024/01/06 09:02:16;;;;;;;27.17;17.13;;;3.80;99.90;;;2.78;100.00;100109.69;5056105;28;20591;-70
2024/01/06 09:04:44;;;;;;;31.43;18.17;;;3.80;99.90;;;2.77;100.00;100106.22;5056113;28;20305;-70
2024/01/06 09:07:12;;;;;;;27.60;17.53;;;3.80;99.90;;;2.69;100.00;100115.75;5056320;28;20225;-70
2024/01/06 09:09:41;;;;;;;28.97;16.90;;;3.80;99.90;;;2.75;100.00;100131.09;5056021;28;20653;-70
2024/01/06 09:12:09;;;;;;;27.13;17.10;;;3.90;99.90;;;2.70;100.00;100126.19;5056183;28;20230;-70
2024/01/06 09:14:37;;;;;;;28.37;17.40;;;3.70;99.90;;;2.73;100.00;100125.09;5056281;28;20244;-70
2024/01/06 09:17:07;;;;;;;27.93;17.33;;;3.80;99.90;;;2.74;100.00;100134.72;5056194;28;20206;-70
2024/01/06 09:19:35;;;;;;;29.97;17.63;;;3.80;99.90;;;2.78;100.00;100138.78;5056154;28;20230;-70
2024/01/06 09:22:04;;;;;;;31.90;18.43;;;4.00;99.90;;;2.78;100.00;100142.25;5056055;28;20237;-70
2024/01/06 09:24:33;;;;;;;27.53;17.33;;;3.80;99.90;;;2.76;100.00;100143.34;5056362;28;20236;-70
2024/01/06 09:27:01;;;;;;;29.13;17.67;;;3.90;99.90;;;2.76;100.00;100149.47;5055899;28;20232;-70
2024/01/06 09:29:29;;;;;;;28.57;18.10;;;3.80;99.90;;;2.76;100.00;100153.94;5056015;28;20245;-70
2024/01/06 09:31:57;;;;;;;30.20;18.33;;;3.80;99.90;;;2.75;100.00;100154.88;5055855;28;20225;-70
2024/01/06 09:34:27;;;;;;;30.37;18.13;;;3.90;99.90;;;2.78;100.00;100162.56;5055560;28;20638;-70
2024/01/06 09:36:55;;;;;;;31.47;18.47;;;3.90;99.90;;;2.75;100.00;100166.28;5054830;28;20213;-70
2024/01/06 09:39:24;;;;;;;34.63;19.27;;;3.80;99.90;;;2.78;100.00;100162.56;5055448;28;20304;-70
2024/01/06 09:41:52;;;;;;;30.57;18.23;;;3.90;99.90;;;2.71;100.00;100175.44;5055710;28;20332;-70
2024/01/06 09:44:20;;;;;;;31.60;19.13;;;3.80;99.90;;;2.74;100.00;100169.09;5055388;28;20202;-70
2024/01/06 09:46:50;;;;;;;32.67;19.67;;;3.80;99.90;;;2.71;100.00;100174.59;5055359;28;20683;-70
2024/01/06 09:49:24;;;;;;;34.07;19.53;;;4.00;99.90;;;2.70;100.00;100167.66;5055311;28;20255;-70
2024/01/06 09:51:59;;;;;;;34.37;20.43;;;3.90;99.90;;;2.75;100.00;100176.88;5055184;28;20726;-70
2024/01/06 09:54:34;;;;;;;32.97;19.47;;;3.80;99.90;;;2.76;100.00;100178.56;5055535;28;20243;-70
2024/01/06 09:57:05;;;;;;;34.37;18.47;;;3.80;99.90;;;2.77;100.00;100177.59;5055202;28;20193;-70
2024/01/06 09:59:36;;;;;;;31.23;18.80;;;3.90;99.90;;;2.77;100.00;100179.41;5055489;28;20191;-70
2024/01/06 10:02:05;;;;;;;31.63;18.73;;;3.90;99.90;;;2.75;100.00;100183.97;5055269;28;20276;-70
2024/01/06 10:04:34;;;;;;;32.30;19.07;;;3.80;99.90;;;2.77;100.00;100184.69;5054754;28;20683;-70
2024/01/06 10:07:03;;;;;;;32.90;19.53;;;3.80;99.90;;;2.72;100.00;100187.69;5055236;28;20206;-70
2024/01/06 10:09:31;;;;;;;33.70;18.80;;;3.80;99.90;;;2.76;100.00;100183.00;5055250;28;20237;-70
2024/01/06 10:12:00;;;;;;;35.17;19.63;;;3.80;99.90;;;2.73;100.00;100186.75;5055128;28;20226;-70
2024/01/06 10:14:28;;;;;;;33.50;18.67;;;3.80;99.90;;;2.71;100.00;100195.72;5055124;28;20229;-70
2024/01/06 10:16:56;;;;;;;35.97;19.97;;;3.90;99.90;;;2.62;100.00;100197.34;5055015;28;20683;-70